Time;durP1;ratioP1;P1;durP2;ratioP2;P2;SDS_P1;SDS_P2;PMS_P1;PMS_P2;Temp;Humidity;BMP_temperature;BMP_pressure;BME280_temperature;BME280_humidity;BME280_pressure;Samples;Min_cycle;Max_cycle;Signal;HPM_P1;HPM_P2
2022/02/01 00:00:11;;;;;;;20.83;6.45;;;6.60;92.30;;;;;;6239735;23;20311;-63
2022/02/01 00:02:45;;;;;;;32.83;5.75;;;6.60;92.30;;;;;;6237992;23;20044;-60
2022/02/01 00:05:18;;;;;;;21.65;5.40;;;6.50;92.20;;;;;;6212580;23;20004;-60
2022/02/01 00:10:21;;;;;;;19.13;5.60;;;6.50;92.20;;;;;;6240595;23;20345;-60
2022/02/01 00:13:07;;;;;;;27.17;4.95;;;6.50;92.30;;;;;;6239979;23;20004;-59
2022/02/01 00:18:44;;;;;;;21.92;5.07;;;6.40;92.30;;;;;;6239517;23;20445;-61
2022/02/01 00:37:22;;;;;;;12.10;4.18;;;6.20;92.10;;;;;;6241430;23;20004;-60
2022/02/01 00:39:55;;;;;;;10.80;3.88;;;6.20;92.20;;;;;;6241881;23;19997;-61
2022/02/01 00:42:21;;;;;;;14.43;4.30;;;6.20;92.20;;;;;;6216739;23;20004;-59
2022/02/01 00:44:46;;;;;;;11.05;3.50;;;6.20;92.10;;;;;;6242441;23;20078;-60
2022/02/01 00:47:12;;;;;;;11.30;3.90;;;6.20;92.20;;;;;;6243909;23;20071;-61
2022/02/01 00:49:38;;;;;;;14.20;4.43;;;6.20;92.10;;;;;;6241953;23;20079;-62
2022/02/01 00:52:04;;;;;;;18.80;4.55;;;6.20;92.10;;;;;;6190108;23;20384;-58
2022/02/01 00:54:29;;;;;;;10.15;3.67;;;6.20;92.00;;;;;;6240110;23;20091;-59
2022/02/01 00:56:55;;;;;;;12.02;3.88;;;6.30;92.10;;;;;;6214356;23;20027;-62
2022/02/01 00:59:21;;;;;;;12.65;4.30;;;6.20;92.00;;;;;;6216716;23;20057;-61
2022/02/01 01:01:46;;;;;;;13.23;4.55;;;6.20;92.00;;;;;;6243328;23;20011;-63
2022/02/01 01:04:12;;;;;;;16.40;4.47;;;6.20;91.90;;;;;;6165076;23;20000;-61
2022/02/01 01:06:37;;;;;;;9.45;3.38;;;6.20;91.90;;;;;;6214120;23;20000;-62
2022/02/01 01:09:03;;;;;;;8.00;3.63;;;6.20;91.90;;;;;;6240755;23;20010;-60
2022/02/01 01:11:29;;;;;;;13.68;3.83;;;6.20;91.90;;;;;;6243004;23;20000;-61
2022/02/01 01:16:49;;;;;;;9.18;3.72;;;6.20;91.80;;;;;;6243722;23;20035;-60
2022/02/01 01:43:49;;;;;;;7.15;3.20;;;6.20;91.70;;;;;;6220508;23;20489;-60
2022/02/01 01:52:47;;;;;;;8.07;3.50;;;6.20;91.70;;;;;;6240920;23;20000;-60
2022/02/01 01:54:31;;;;;;;7.80;3.00;;;6.20;91.70;;;;;;6219061;23;20437;-59
2022/02/01 01:56:57;;;;;;;8.88;3.13;;;6.20;91.70;;;;;;6214226;23;20016;-59
2022/02/01 01:59:23;;;;;;;10.13;3.65;;;6.10;91.60;;;;;;6187693;23;20004;-60
2022/02/01 02:01:49;;;;;;;5.63;2.78;;;6.20;91.70;;;;;;6212477;23;20279;-59
2022/02/01 02:04:14;;;;;;;8.30;3.05;;;6.10;91.70;;;;;;6214792;23;20000;-61
2022/02/01 02:06:40;;;;;;;6.45;3.58;;;6.10;91.70;;;;;;6214594;23;19997;-61
2022/02/01 02:09:07;;;;;;;7.55;2.88;;;6.10;91.70;;;;;;6241326;23;20098;-62
2022/02/01 02:11:53;;;;;;;5.30;2.53;;;6.10;91.70;;;;;;6213218;23;20091;-60
2022/02/01 02:14:20;;;;;;;6.30;3.30;;;6.00;91.60;;;;;;6238965;23;20035;-60
2022/02/01 02:17:00;;;;;;;6.20;3.22;;;6.00;91.70;;;;;;6214577;23;20024;-61
2022/02/01 02:19:27;;;;;;;8.55;3.22;;;6.10;91.70;;;;;;6214358;23;19996;-62
2022/02/01 02:21:55;;;;;;;7.68;2.85;;;6.00;91.70;;;;;;6190973;23;20079;-62
2022/02/01 02:24:23;;;;;;;7.03;3.10;;;6.10;91.70;;;;;;6213459;23;20000;-60
2022/02/01 02:26:49;;;;;;;6.40;2.28;;;6.00;91.70;;;;;;6240866;23;20315;-61
2022/02/01 02:29:15;;;;;;;7.07;2.72;;;6.10;91.70;;;;;;6241210;23;20465;-61
2022/02/01 02:31:40;;;;;;;9.20;3.10;;;6.00;91.70;;;;;;6214557;23;20138;-62
2022/02/01 02:34:10;;;;;;;12.95;2.92;;;6.00;91.60;;;;;;6240989;23;20079;-62
2022/02/01 02:36:39;;;;;;;9.07;3.05;;;6.00;91.70;;;;;;6190077;23;20003;-62
2022/02/01 02:39:23;;;;;;;8.75;3.17;;;6.00;91.70;;;;;;6211697;23;20418;-59
2022/02/01 02:41:53;;;;;;;16.73;2.85;;;6.00;91.70;;;;;;6240578;23;20054;-60
2022/02/01 02:47:03;;;;;;;8.68;2.92;;;6.10;91.70;;;;;;6218633;23;20081;-63
2022/02/01 02:49:29;;;;;;;5.57;2.92;;;6.10;91.70;;;;;;6213411;23;20090;-60
2022/02/01 02:51:54;;;;;;;10.00;3.42;;;6.00;91.60;;;;;;6186838;23;20010;-58
2022/02/01 02:54:22;;;;;;;13.43;3.72;;;6.00;91.70;;;;;;6212489;23;20425;-61
2022/02/01 02:56:54;;;;;;;12.10;3.22;;;6.00;91.70;;;;;;6214124;23;20145;-60
2022/02/01 02:59:23;;;;;;;16.05;3.47;;;6.00;91.70;;;;;;6191434;23;20115;-61
2022/02/01 03:01:49;;;;;;;6.57;2.53;;;6.00;91.70;;;;;;6213608;23;20004;-64
2022/02/01 03:04:19;;;;;;;10.80;2.70;;;6.00;91.70;;;;;;6212481;23;20031;-60
2022/02/01 03:06:44;;;;;;;9.40;3.00;;;5.90;91.70;;;;;;6238940;23;20007;-59
2022/02/01 03:09:10;;;;;;;10.18;2.90;;;6.00;91.70;;;;;;6189020;23;20008;-63
2022/02/01 03:11:36;;;;;;;9.73;3.08;;;6.00;91.70;;;;;;6214799;23;19996;-63
2022/02/01 03:14:05;;;;;;;6.35;2.53;;;5.90;91.70;;;;;;6213937;23;20140;-63
2022/02/01 03:16:47;;;;;;;8.23;3.30;;;5.90;91.70;;;;;;6239382;23;19996;-64
2022/02/01 03:21:57;;;;;;;7.43;3.10;;;5.90;91.70;;;;;;6218528;23;20054;-60
2022/02/01 03:24:23;;;;;;;8.15;2.78;;;5.90;91.60;;;;;;6240500;23;20264;-62
2022/02/01 03:26:48;;;;;;;10.20;3.33;;;5.90;91.60;;;;;;6214350;23;20007;-61
2022/02/01 03:29:14;;;;;;;7.28;2.80;;;5.90;91.60;;;;;;6239800;23;20008;-63
2022/02/01 03:31:39;;;;;;;9.38;3.20;;;5.90;91.70;;;;;;6238674;23;20007;-61
2022/02/01 03:34:05;;;;;;;11.05;3.13;;;5.90;91.70;;;;;;6239659;23;20425;-61
2022/02/01 03:36:30;;;;;;;10.02;3.47;;;5.90;91.70;;;;;;6241292;23;20003;-61
2022/02/01 03:38:58;;;;;;;10.57;3.28;;;5.90;91.70;;;;;;6213883;23;19996;-62
2022/02/01 03:41:23;;;;;;;6.97;3.50;;;5.90;91.70;;;;;;6240376;23;20448;-61
2022/02/01 03:43:49;;;;;;;10.95;3.15;;;5.90;91.70;;;;;;6238661;23;20040;-61
2022/02/01 03:46:15;;;;;;;6.55;2.83;;;5.90;91.70;;;;;;6212553;23;20092;-62
2022/02/01 03:48:40;;;;;;;11.05;3.10;;;5.90;91.80;;;;;;6213779;23;19996;-60
2022/02/01 03:51:06;;;;;;;9.77;3.17;;;5.90;91.80;;;;;;6241314;23;20310;-60
2022/02/01 03:53:31;;;;;;;7.15;2.78;;;5.90;91.80;;;;;;6240682;23;20459;-59
2022/02/01 03:55:57;;;;;;;5.20;3.05;;;5.90;91.80;;;;;;6239042;23;20378;-59
2022/02/01 03:58:22;;;;;;;10.13;2.67;;;5.90;91.80;;;;;;6211777;23;20071;-60
2022/02/01 04:00:48;;;;;;;9.02;3.10;;;5.90;91.80;;;;;;6240927;23;20473;-59
2022/02/01 04:03:13;;;;;;;9.43;3.33;;;5.90;91.80;;;;;;6241629;23;20079;-61
2022/02/01 04:05:39;;;;;;;8.30;3.40;;;5.90;91.90;;;;;;6240566;23;20083;-59
2022/02/01 04:08:04;;;;;;;7.57;4.25;;;5.90;91.80;;;;;;6239218;23;20205;-61
2022/02/01 04:10:30;;;;;;;9.25;3.78;;;5.90;91.80;;;;;;6237402;23;20007;-61
2022/02/01 04:12:57;;;;;;;8.68;3.90;;;5.90;91.80;;;;;;6212290;23;20008;-60
2022/02/01 04:15:25;;;;;;;8.80;3.67;;;5.90;91.80;;;;;;6213264;23;20001;-59
2022/02/01 04:17:52;;;;;;;7.93;3.67;;;5.90;91.80;;;;;;6214697;23;20151;-59
2022/02/01 04:20:17;;;;;;;8.07;3.38;;;5.90;91.80;;;;;;6212832;23;20007;-61
2022/02/01 04:22:43;;;;;;;7.43;3.15;;;5.90;91.80;;;;;;6211465;23;20004;-63
2022/02/01 04:25:08;;;;;;;7.68;3.75;;;5.80;91.90;;;;;;6237751;23;20004;-63
2022/02/01 04:27:34;;;;;;;9.40;3.28;;;5.80;91.90;;;;;;6241090;23;20004;-61
2022/02/01 04:30:07;;;;;;;8.85;3.33;;;5.80;91.90;;;;;;6241083;23;19996;-60
2022/02/01 04:32:40;;;;;;;5.75;2.72;;;5.80;91.90;;;;;;6215141;23;20040;-62
2022/02/01 04:35:08;;;;;;;7.28;3.03;;;5.80;91.90;;;;;;6238433;23;20561;-63
2022/02/01 04:37:33;;;;;;;6.40;3.25;;;5.80;91.90;;;;;;6211388;23;20022;-60
2022/02/01 04:39:59;;;;;;;6.63;2.90;;;5.80;91.90;;;;;;6212220;23;20303;-63
2022/02/01 04:42:27;;;;;;;10.75;3.40;;;5.80;91.90;;;;;;6213111;23;20414;-62
2022/02/01 04:44:53;;;;;;;9.23;2.75;;;5.80;91.90;;;;;;6239806;23;20050;-61
2022/02/01 04:47:18;;;;;;;8.95;3.47;;;5.80;91.90;;;;;;6238679;23;20016;-59
2022/02/01 04:49:44;;;;;;;7.57;3.38;;;5.80;92.00;;;;;;6238249;23;20008;-60
2022/02/01 04:52:10;;;;;;;8.52;2.88;;;5.80;92.00;;;;;;6238754;23;20011;-63
2022/02/01 04:54:35;;;;;;;6.35;3.13;;;5.80;92.00;;;;;;6238602;23;20000;-63
2022/02/01 04:57:01;;;;;;;6.78;2.95;;;5.80;92.00;;;;;;6240643;23;20016;-63
2022/02/01 04:59:26;;;;;;;10.60;3.45;;;5.80;92.00;;;;;;6239512;23;20015;-63
2022/02/01 05:01:52;;;;;;;8.48;2.80;;;5.80;92.00;;;;;;6210808;23;20478;-61
2022/02/01 05:04:20;;;;;;;11.57;3.30;;;5.80;92.00;;;;;;6186511;23;20001;-63
2022/02/01 05:06:51;;;;;;;8.15;3.13;;;5.80;92.00;;;;;;6239898;23;20016;-62
2022/02/01 05:09:17;;;;;;;8.30;3.33;;;5.80;92.00;;;;;;6213976;23;20023;-60
2022/02/01 05:11:42;;;;;;;9.68;3.28;;;5.80;92.00;;;;;;6212909;23;20008;-60
2022/02/01 05:14:14;;;;;;;11.25;3.30;;;5.80;92.00;;;;;;6211252;23;20004;-62
2022/02/01 05:16:57;;;;;;;25.25;4.80;;;5.80;92.00;;;;;;6211129;23;20193;-61
2022/02/01 05:22:02;;;;;;;22.98;4.63;;;5.80;92.00;;;;;;6213714;23;20312;-63
2022/02/01 05:24:28;;;;;;;9.00;3.42;;;5.80;92.00;;;;;;6213653;23;20004;-60
2022/02/01 05:26:54;;;;;;;16.00;3.50;;;5.80;92.10;;;;;;6240359;23;20015;-62
2022/02/01 05:29:21;;;;;;;20.23;3.75;;;5.80;92.10;;;;;;6242467;23;20027;-60
2022/02/01 05:31:49;;;;;;;12.50;4.22;;;5.80;92.10;;;;;;6215263;23;20020;-63
2022/02/01 05:34:15;;;;;;;24.00;3.90;;;5.80;92.10;;;;;;6190721;23;20050;-62
2022/02/01 05:36:40;;;;;;;10.77;3.33;;;5.80;92.10;;;;;;6214510;23;20012;-59
2022/02/01 05:39:19;;;;;;;18.83;3.78;;;5.80;92.10;;;;;;6240413;23;19996;-59
2022/02/01 05:41:45;;;;;;;30.20;4.40;;;5.70;92.10;;;;;;6189361;23;20015;-63
2022/02/01 05:44:11;;;;;;;30.05;3.75;;;5.70;92.10;;;;;;6241367;23;20014;-60
2022/02/01 05:46:36;;;;;;;24.23;3.92;;;5.70;92.10;;;;;;6215199;23;20409;-62
2022/02/01 05:49:05;;;;;;;48.75;5.47;;;5.80;92.20;;;;;;6189587;23;20004;-61
2022/02/01 05:51:31;;;;;;;43.53;5.72;;;5.70;92.20;;;;;;6214221;23;20418;-64
2022/02/01 05:53:57;;;;;;;32.42;4.90;;;5.70;92.30;;;;;;6212122;23;20022;-62
2022/02/01 05:56:23;;;;;;;40.45;6.47;;;5.70;92.30;;;;;;6240724;23;20020;-61
2022/02/01 05:58:48;;;;;;;36.25;5.03;;;5.80;92.30;;;;;;6214034;23;20000;-63
2022/02/01 06:01:14;;;;;;;32.28;5.18;;;5.80;92.40;;;;;;6240741;23;20012;-60
2022/02/01 06:03:39;;;;;;;41.25;6.75;;;5.80;92.40;;;;;;6240222;23;20004;-62
2022/02/01 06:06:07;;;;;;;37.53;4.40;;;5.80;92.70;;;;;;6239377;23;20328;-61
2022/02/01 06:08:33;;;;;;;36.88;5.55;;;5.80;92.40;;;;;;6239289;23;20500;-61
2022/02/01 06:10:58;;;;;;;50.05;5.97;;;5.80;92.40;;;;;;6241277;23;20008;-61
2022/02/01 06:13:24;;;;;;;47.67;5.55;;;5.80;92.40;;;;;;6214126;23;20463;-62
2022/02/01 06:15:49;;;;;;;44.78;5.72;;;5.80;92.40;;;;;;6214495;23;20012;-62
2022/02/01 06:18:15;;;;;;;43.65;6.03;;;5.80;92.40;;;;;;6187599;23;20092;-62
2022/02/01 06:20:40;;;;;;;41.35;6.20;;;5.80;92.40;;;;;;6239175;23;20000;-62
2022/02/01 06:23:16;;;;;;;36.58;4.95;;;5.80;92.40;;;;;;6213970;23;20268;-65
2022/02/01 06:25:51;;;;;;;20.17;4.32;;;5.80;92.40;;;;;;6213902;23;20023;-63
2022/02/01 06:28:18;;;;;;;32.75;5.30;;;5.80;92.40;;;;;;6216460;23;20012;-60
2022/02/01 06:30:43;;;;;;;34.85;4.85;;;5.80;92.40;;;;;;6213300;23;20004;-61
2022/02/01 06:33:09;;;;;;;41.50;5.03;;;5.70;92.40;;;;;;6239052;23;20491;-62
2022/02/01 06:35:35;;;;;;;35.15;4.40;;;5.70;92.40;;;;;;6212318;23;20418;-63
2022/02/01 06:38:00;;;;;;;23.75;4.28;;;5.80;92.50;;;;;;6241299;23;20088;-62
2022/02/01 06:40:28;;;;;;;25.55;4.68;;;5.70;92.50;;;;;;6241792;23;20011;-61
2022/02/01 06:42:53;;;;;;;32.20;5.68;;;5.70;92.50;;;;;;6239941;23;20005;-61
2022/02/01 06:45:19;;;;;;;36.88;5.75;;;5.70;92.50;;;;;;6212042;23;20479;-64
2022/02/01 06:47:44;;;;;;;38.42;7.00;;;5.70;92.50;;;;;;6162674;23;20062;-64
2022/02/01 06:50:11;;;;;;;26.08;5.35;;;5.70;92.60;;;;;;6163509;23;20050;-62
2022/02/01 06:52:36;;;;;;;22.50;4.68;;;5.70;92.60;;;;;;6213882;23;20075;-59
2022/02/01 06:55:02;;;;;;;41.08;5.07;;;5.70;92.50;;;;;;6240667;23;20031;-63
2022/02/01 06:57:28;;;;;;;36.42;5.22;;;5.70;92.50;;;;;;6238529;23;20023;-59
2022/02/01 06:59:54;;;;;;;32.95;5.50;;;5.70;92.60;;;;;;6211640;23;20137;-60
2022/02/01 07:02:20;;;;;;;33.15;5.00;;;5.70;92.60;;;;;;6238958;23;20084;-62
2022/02/01 07:04:46;;;;;;;27.45;4.40;;;5.70;92.50;;;;;;6213353;23;20004;-61
2022/02/01 07:07:12;;;;;;;30.95;5.05;;;5.70;92.60;;;;;;6239873;23;20008;-63
2022/02/01 07:09:39;;;;;;;30.77;4.72;;;5.70;92.60;;;;;;6239411;23;20087;-61
2022/02/01 07:12:05;;;;;;;30.02;5.15;;;5.70;92.60;;;;;;6211978;23;20008;-67
2022/02/01 07:14:31;;;;;;;32.55;5.25;;;5.70;92.70;;;;;;6212769;23;20342;-63
2022/02/01 07:16:56;;;;;;;25.10;4.88;;;5.70;92.70;;;;;;6240504;23;20008;-63
2022/02/01 07:19:22;;;;;;;19.95;4.18;;;5.60;92.70;;;;;;6240442;23;20090;-62
2022/02/01 07:21:48;;;;;;;19.90;4.22;;;5.60;92.80;;;;;;6240484;23;20008;-60
2022/02/01 07:24:17;;;;;;;23.02;4.30;;;5.60;92.80;;;;;;6238001;23;20379;-62
2022/02/01 07:26:52;;;;;;;24.67;4.30;;;5.60;92.70;;;;;;6211212;23;20299;-67
2022/02/01 07:29:17;;;;;;;26.23;4.25;;;5.60;92.70;;;;;;6215911;23;20058;-63
2022/02/01 07:31:43;;;;;;;21.20;4.22;;;5.60;92.80;;;;;;6240650;23;20015;-64
2022/02/01 07:34:08;;;;;;;22.17;4.40;;;5.60;92.90;;;;;;6240217;23;20038;-61
2022/02/01 07:36:35;;;;;;;16.75;3.88;;;5.60;92.90;;;;;;6238572;23;20055;-63
2022/02/01 07:39:00;;;;;;;17.85;4.65;;;5.60;92.80;;;;;;6212979;23;20364;-61
2022/02/01 07:41:26;;;;;;;22.38;4.07;;;5.60;92.90;;;;;;6239824;23;20039;-60
2022/02/01 07:43:53;;;;;;;14.48;3.63;;;5.60;92.90;;;;;;6212046;23;20035;-63
2022/02/01 07:46:19;;;;;;;26.75;3.97;;;5.60;92.90;;;;;;6212513;23;20442;-62
2022/02/01 07:48:45;;;;;;;18.30;3.50;;;5.60;92.90;;;;;;6237062;23;20024;-66
2022/02/01 07:51:10;;;;;;;18.35;4.32;;;5.60;92.90;;;;;;6209543;23;20043;-62
2022/02/01 07:53:36;;;;;;;15.75;4.20;;;5.60;92.80;;;;;;6238921;23;20054;-62
2022/02/01 07:56:02;;;;;;;24.13;3.53;;;5.60;92.80;;;;;;6239723;23;20084;-60
2022/02/01 07:58:27;;;;;;;19.40;4.15;;;5.60;92.80;;;;;;6213031;23;20007;-63
2022/02/01 08:00:53;;;;;;;17.65;3.95;;;5.50;92.70;;;;;;6211182;23;20458;-59
2022/02/01 08:03:18;;;;;;;15.02;3.45;;;5.50;92.80;;;;;;6238484;23;20372;-62
2022/02/01 08:05:44;;;;;;;18.20;3.95;;;5.60;92.80;;;;;;6237769;23;20000;-60
2022/02/01 08:08:09;;;;;;;16.95;4.95;;;5.50;92.80;;;;;;6212030;23;20015;-65
2022/02/01 08:10:45;;;;;;;18.73;3.80;;;5.50;92.80;;;;;;6239843;23;20000;-62
2022/02/01 08:16:35;;;;;;;19.13;3.75;;;5.50;92.80;;;;;;6194580;23;20011;-64
2022/02/01 08:21:29;;;;;;;11.68;2.97;;;5.50;92.80;;;;;;6239526;23;20000;-66
2022/02/01 08:23:55;;;;;;;16.77;3.92;;;5.50;92.80;;;;;;6238354;23;20126;-61
2022/02/01 08:26:21;;;;;;;10.98;3.38;;;5.50;92.70;;;;;;6182872;23;20015;-64
2022/02/01 08:28:47;;;;;;;16.02;3.70;;;5.50;92.70;;;;;;6183648;23;20012;-63
2022/02/01 08:31:14;;;;;;;14.50;3.55;;;5.50;92.70;;;;;;6186841;23;20060;-62
2022/02/01 08:33:39;;;;;;;18.77;4.65;;;5.50;92.70;;;;;;6212145;23;20028;-63
2022/02/01 08:36:05;;;;;;;16.23;4.22;;;5.50;92.70;;;;;;6187745;23;20400;-63
2022/02/01 08:38:30;;;;;;;13.45;3.95;;;5.50;92.70;;;;;;6237637;23;20099;-60
2022/02/01 08:40:58;;;;;;;10.80;2.97;;;5.50;92.80;;;;;;6208747;23;20000;-65
2022/02/01 08:43:23;;;;;;;13.55;3.25;;;5.50;92.80;;;;;;6233589;23;20009;-62
2022/02/01 08:45:49;;;;;;;10.95;3.65;;;5.50;92.70;;;;;;6212094;23;20379;-65
2022/02/01 08:48:14;;;;;;;14.60;3.40;;;5.50;92.70;;;;;;6211736;23;20412;-63
2022/02/01 08:50:40;;;;;;;18.05;3.88;;;5.50;92.70;;;;;;6211336;23;20032;-60
2022/02/01 08:53:13;;;;;;;16.08;3.58;;;5.50;92.70;;;;;;6237409;23;20008;-61
2022/02/01 08:55:50;;;;;;;12.80;3.08;;;5.50;92.70;;;;;;6231339;23;20430;-62
2022/02/01 08:58:16;;;;;;;15.48;3.78;;;5.50;92.70;;;;;;6210068;23;20010;-61
2022/02/01 09:00:41;;;;;;;13.38;3.30;;;5.50;92.60;;;;;;6211475;23;20071;-63
2022/02/01 09:03:07;;;;;;;14.45;4.03;;;5.50;92.60;;;;;;6185749;23;20011;-61
2022/02/01 09:05:33;;;;;;;13.20;3.60;;;5.50;92.60;;;;;;6210648;23;20000;-62
2022/02/01 09:07:59;;;;;;;13.30;3.88;;;5.50;92.60;;;;;;6236689;23;20004;-61
2022/02/01 09:10:25;;;;;;;14.85;3.53;;;5.50;92.60;;;;;;6186368;23;20011;-61
2022/02/01 09:12:51;;;;;;;17.45;3.45;;;5.50;92.60;;;;;;6213181;23;20270;-64
2022/02/01 09:15:16;;;;;;;7.60;3.13;;;5.50;92.60;;;;;;6240433;23;20012;-60
2022/02/01 09:17:45;;;;;;;12.52;3.22;;;5.40;92.60;;;;;;6187499;23;20000;-65
2022/02/01 09:20:11;;;;;;;12.18;3.13;;;5.40;92.60;;;;;;6210061;23;20000;-63
2022/02/01 09:22:36;;;;;;;11.27;3.20;;;5.50;92.60;;;;;;6211086;23;20101;-62
2022/02/01 09:25:02;;;;;;;12.27;3.47;;;5.40;92.60;;;;;;6210999;23;20004;-64
2022/02/01 09:27:27;;;;;;;11.75;3.30;;;5.60;92.60;;;;;;6211507;23;20004;-62
2022/02/01 09:29:53;;;;;;;14.23;3.63;;;5.50;92.50;;;;;;6240533;23;20648;-62
2022/02/01 09:32:19;;;;;;;12.18;3.45;;;5.50;92.50;;;;;;6211251;23;20072;-62
2022/02/01 09:34:45;;;;;;;15.07;3.38;;;5.50;92.40;;;;;;6237959;23;20516;-64
2022/02/01 09:37:10;;;;;;;12.75;3.58;;;5.50;92.40;;;;;;6186361;23;20748;-61
2022/02/01 09:39:36;;;;;;;14.52;2.53;;;5.50;92.30;;;;;;6212121;23;20000;-62
2022/02/01 09:42:01;;;;;;;16.23;3.08;;;5.50;92.60;;;;;;6239682;23;20000;-62
2022/02/01 09:44:27;;;;;;;14.93;3.58;;;5.50;92.30;;;;;;6210647;23;20000;-64
2022/02/01 09:46:53;;;;;;;19.17;4.05;;;5.50;92.30;;;;;;6185016;23;20410;-62
2022/02/01 09:49:22;;;;;;;11.63;3.17;;;5.50;92.30;;;;;;6211214;23;20015;-65
2022/02/01 09:51:49;;;;;;;15.60;3.13;;;5.50;92.20;;;;;;6211848;23;20000;-60
2022/02/01 09:54:15;;;;;;;15.32;3.53;;;5.50;92.10;;;;;;6213555;23;20150;-63
2022/02/01 09:56:40;;;;;;;20.10;3.60;;;5.50;92.10;;;;;;6238997;23;20441;-63
2022/02/01 09:59:30;;;;;;;10.82;3.50;;;5.60;92.10;;;;;;6238673;23;20000;-63
2022/02/01 10:01:56;;;;;;;22.13;4.13;;;5.60;91.90;;;;;;6188537;23;20004;-62
2022/02/01 10:04:27;;;;;;;26.45;4.32;;;5.60;91.90;;;;;;6210969;23;20008;-65
2022/02/01 10:06:53;;;;;;;23.00;4.32;;;5.60;91.90;;;;;;6211039;23;20000;-66
2022/02/01 10:09:19;;;;;;;32.25;3.95;;;5.60;92.00;;;;;;6237786;23;20591;-63
2022/02/01 10:11:46;;;;;;;24.52;3.83;;;5.60;91.90;;;;;;6210385;23;20052;-61
2022/02/01 10:14:20;;;;;;;23.13;4.07;;;5.60;91.80;;;;;;6238412;23;20016;-64
2022/02/01 10:16:53;;;;;;;23.63;4.30;;;5.60;91.70;;;;;;6213324;23;20034;-63
2022/02/01 10:19:19;;;;;;;19.75;3.83;;;5.60;91.70;;;;;;6213082;23;20004;-61
2022/02/01 10:21:57;;;;;;;16.65;3.95;;;5.60;91.70;;;;;;6210548;23;20057;-62
2022/02/01 10:24:38;;;;;;;24.38;4.32;;;5.60;91.60;;;;;;6188080;23;20626;-63
2022/02/01 10:27:13;;;;;;;18.65;4.13;;;5.60;91.60;;;;;;6185704;23;20004;-59
2022/02/01 10:29:49;;;;;;;31.33;4.75;;;5.60;91.60;;;;;;6210779;23;20014;-64
2022/02/01 10:32:20;;;;;;;16.20;4.35;;;5.60;91.50;;;;;;6189969;23;20011;-63
2022/02/01 10:34:48;;;;;;;20.48;4.45;;;5.70;91.60;;;;;;6215307;23;20307;-62
2022/02/01 10:37:22;;;;;;;22.10;4.40;;;5.60;91.50;;;;;;6162234;23;20011;-63
2022/02/01 10:39:53;;;;;;;13.63;3.10;;;5.70;91.50;;;;;;6186077;23;20034;-62
2022/02/01 10:42:19;;;;;;;22.35;4.45;;;5.70;91.50;;;;;;6161683;23;20080;-62
2022/02/01 10:44:47;;;;;;;16.20;4.57;;;5.70;91.40;;;;;;6235357;23;20005;-62
2022/02/01 10:47:17;;;;;;;34.85;4.93;;;5.70;91.40;;;;;;6212077;23;20390;-61
2022/02/01 10:49:42;;;;;;;31.20;5.18;;;5.70;91.40;;;;;;6238124;23;20008;-61
2022/02/01 10:52:10;;;;;;;22.33;5.10;;;5.80;91.30;;;;;;6209055;23;20043;-62
2022/02/01 10:54:36;;;;;;;63.85;8.10;;;5.80;91.40;;;;;;6210062;23;20216;-61
2022/02/01 10:57:03;;;;;;;47.95;7.47;;;5.80;91.40;;;;;;6209957;23;20104;-63
2022/02/01 10:59:28;;;;;;;48.33;6.30;;;5.80;91.40;;;;;;6240060;23;20008;-62
2022/02/01 11:01:55;;;;;;;46.03;6.55;;;5.80;91.40;;;;;;6211179;23;20035;-60
2022/02/01 11:04:21;;;;;;;43.45;5.78;;;5.90;91.30;;;;;;6185049;23;20000;-59
2022/02/01 11:06:51;;;;;;;39.03;6.65;;;5.90;91.30;;;;;;6185266;23;20001;-60
2022/02/01 11:09:29;;;;;;;37.78;5.85;;;5.90;91.30;;;;;;6210031;23;20000;-60
2022/02/01 11:11:57;;;;;;;48.17;7.60;;;5.90;91.20;;;;;;6211777;23;20011;-62
2022/02/01 11:14:24;;;;;;;44.08;6.72;;;5.90;91.20;;;;;;6187643;23;20330;-62
2022/02/01 11:17:07;;;;;;;37.80;5.90;;;5.90;91.10;;;;;;6210131;23;20008;-62
2022/02/01 11:19:47;;;;;;;36.78;7.07;;;5.90;91.10;;;;;;6184827;23;20271;-60
2022/02/01 11:22:19;;;;;;;38.70;6.18;;;5.90;91.00;;;;;;6236308;23;20016;-61
2022/02/01 11:24:57;;;;;;;38.30;5.90;;;5.90;91.00;;;;;;6237905;23;20008;-59
2022/02/01 11:28:08;;;;;;;28.90;5.50;;;5.90;91.00;;;;;;6188192;23;20365;-60
2022/02/01 11:30:45;;;;;;;49.35;7.40;;;6.00;91.00;;;;;;6213943;23;20114;-61
2022/02/01 11:33:12;;;;;;;44.42;6.40;;;6.00;91.00;;;;;;6210015;23;20054;-60
2022/02/01 11:35:38;;;;;;;38.42;6.25;;;6.00;91.00;;;;;;6236688;23;20001;-60
2022/02/01 11:38:07;;;;;;;38.08;6.30;;;6.00;91.00;;;;;;6211702;23;20039;-63
2022/02/01 11:40:42;;;;;;;42.60;5.93;;;6.00;90.90;;;;;;6211000;23;20004;-59
2022/02/01 11:43:09;;;;;;;41.38;6.75;;;6.00;90.90;;;;;;6210552;23;20004;-60
2022/02/01 11:45:43;;;;;;;59.60;9.45;;;6.00;90.90;;;;;;6182238;23;20011;-60
2022/02/01 11:48:17;;;;;;;64.88;6.93;;;6.10;90.90;;;;;;6210224;23;20374;-63
2022/02/01 11:51:09;;;;;;;45.30;7.43;;;6.10;90.90;;;;;;6239150;23;20014;-60
2022/02/01 11:53:42;;;;;;;46.17;7.20;;;6.10;90.80;;;;;;6180582;23;20008;-59
2022/02/01 11:56:08;;;;;;;54.97;7.82;;;6.10;90.70;;;;;;6236612;23;20089;-62
2022/02/01 11:58:47;;;;;;;53.35;7.97;;;6.20;90.70;;;;;;6210211;23;20016;-59
2022/02/01 12:01:25;;;;;;;46.75;6.20;;;6.20;90.80;;;;;;6211710;23;20018;-62
2022/02/01 12:04:02;;;;;;;56.22;7.40;;;6.20;90.80;;;;;;6235798;23;20552;-60
2022/02/01 12:06:41;;;;;;;51.42;7.85;;;6.20;90.80;;;;;;6237837;23;20342;-60
2022/02/01 12:09:11;;;;;;;51.03;6.47;;;6.20;90.70;;;;;;6232841;23;20462;-60
2022/02/01 12:11:39;;;;;;;68.68;8.20;;;6.30;90.80;;;;;;6233740;23;20004;-63
2022/02/01 12:14:04;;;;;;;66.30;8.25;;;6.20;90.70;;;;;;6208337;23;20020;-60
2022/02/01 12:16:30;;;;;;;56.17;8.15;;;6.20;90.80;;;;;;6209166;23;20355;-64
2022/02/01 12:19:06;;;;;;;48.45;6.75;;;6.20;90.80;;;;;;6210338;23;20008;-62
2022/02/01 12:22:04;;;;;;;52.10;7.63;;;6.30;90.70;;;;;;6187374;23;20386;-60
2022/02/01 12:24:30;;;;;;;39.10;7.07;;;6.30;90.70;;;;;;6182108;23;20079;-63
2022/02/01 12:26:55;;;;;;;33.67;6.97;;;6.30;90.70;;;;;;6207765;23;20038;-62
2022/02/01 12:29:21;;;;;;;39.03;6.20;;;6.30;90.70;;;;;;6237218;23;20055;-63
2022/02/01 12:31:48;;;;;;;54.47;7.32;;;6.40;90.60;;;;;;6210281;23;20011;-63
2022/02/01 12:34:15;;;;;;;53.75;6.57;;;6.40;90.90;;;;;;6210668;23;20007;-59
2022/02/01 12:36:50;;;;;;;35.53;5.80;;;6.40;90.60;;;;;;6232597;23;20629;-62
2022/02/01 12:39:31;;;;;;;34.17;5.93;;;6.40;90.60;;;;;;6233889;23;20136;-62
2022/02/01 12:42:05;;;;;;;31.40;5.45;;;6.40;90.60;;;;;;6209129;23;20098;-59
2022/02/01 12:47:01;;;;;;;44.08;7.00;;;6.40;90.40;;;;;;6210229;23;20012;-59
2022/02/01 12:49:43;;;;;;;56.22;7.32;;;6.50;90.40;;;;;;6235069;23;20005;-64
2022/02/01 12:52:20;;;;;;;59.08;7.82;;;6.50;90.30;;;;;;6236950;23;20030;-63
2022/02/01 12:55:06;;;;;;;46.55;8.52;;;6.50;90.40;;;;;;6233687;23;20445;-60
2022/02/01 12:57:33;;;;;;;50.67;6.97;;;6.50;90.30;;;;;;6212713;23;20325;-60
2022/02/01 13:00:00;;;;;;;46.45;7.22;;;6.50;90.30;;;;;;6208739;23;20079;-62
2022/02/01 13:02:27;;;;;;;44.45;6.13;;;6.50;90.20;;;;;;6235308;23;20476;-60
2022/02/01 13:04:54;;;;;;;77.55;10.05;;;6.50;90.20;;;;;;6235994;23;20008;-62
2022/02/01 13:07:44;;;;;;;65.63;9.88;;;6.50;90.20;;;;;;6236994;23;19996;-62
2022/02/01 13:13:23;;;;;;;83.43;9.80;;;6.60;90.20;;;;;;6214742;23;20224;-63
2022/02/01 13:16:15;;;;;;;60.25;8.05;;;6.60;90.10;;;;;;6213534;23;20441;-63
2022/02/01 13:21:04;;;;;;;47.20;7.22;;;6.70;90.00;;;;;;6184892;23;20426;-62
2022/02/01 13:23:49;;;;;;;57.28;7.55;;;6.60;89.80;;;;;;6209664;23;20004;-63
2022/02/01 13:26:16;;;;;;;54.75;8.10;;;6.60;89.50;;;;;;6210763;23;20008;-61
2022/02/01 13:28:43;;;;;;;85.55;9.50;;;6.70;89.60;;;;;;6233380;23;20008;-61
2022/02/01 13:31:15;;;;;;;69.95;8.48;;;6.70;89.50;;;;;;6184151;23;20004;-60
2022/02/01 13:33:52;;;;;;;50.75;8.35;;;6.60;89.30;;;;;;6236594;23;20079;-60
2022/02/01 13:36:18;;;;;;;70.93;9.32;;;6.70;89.20;;;;;;6183781;23;20058;-60
2022/02/01 13:39:00;;;;;;;76.40;8.60;;;6.70;89.20;;;;;;6182456;23;20008;-61
2022/02/01 13:41:27;;;;;;;81.85;10.40;;;6.70;89.00;;;;;;6208558;23;20001;-62
2022/02/01 13:43:55;;;;;;;82.38;10.25;;;6.70;89.00;;;;;;6208147;23;20508;-59
2022/02/01 13:46:28;;;;;;;78.32;11.07;;;6.70;88.90;;;;;;6184493;23;20014;-62
2022/02/01 13:49:11;;;;;;;79.78;8.80;;;6.70;88.80;;;;;;6188317;23;20011;-60
2022/02/01 13:51:47;;;;;;;86.20;9.68;;;6.70;88.60;;;;;;6210804;23;20019;-60
2022/02/01 13:54:13;;;;;;;95.82;10.90;;;6.70;88.80;;;;;;6234219;23;20171;-60
2022/02/01 13:56:50;;;;;;;88.95;11.15;;;6.70;88.50;;;;;;6235986;23;20376;-63
2022/02/01 13:59:22;;;;;;;63.20;8.38;;;6.70;88.60;;;;;;6208601;23;20015;-61
2022/02/01 14:01:48;;;;;;;51.38;8.07;;;6.70;88.50;;;;;;6182818;23;20157;-63
2022/02/01 14:04:29;;;;;;;59.55;8.13;;;6.80;88.30;;;;;;6210848;23;20050;-61
2022/02/01 14:07:12;;;;;;;81.32;9.30;;;6.70;88.20;;;;;;6235656;23;20011;-63
2022/02/01 14:16:13;;;;;;;66.03;8.90;;;6.80;88.40;;;;;;6238909;23;20099;-63
2022/02/01 14:23:47;;;;;;;77.60;9.60;;;6.80;88.40;;;;;;6237294;23;20015;-63